Bovina, Mississippi
Current Conditions -  °F | °C
As of 8:55 PM on Wednesday 26 Nov 2014 (Local Time) from KVKS Reporting Station
Clear Clear  
Wind Chill: 52°   Ceiling: Unl
Heat Index: 52°   Visibility: 10mi
Dew Point: 37°   Wind: 0mph
Humidity: 58%   Direction: NA
Pressure: 30.22"   Gusts: NA
Location:  32.3914°N, 90.8257°W
Report Text: KVKS 270255Z AUTO 00000KT 10SM CLR 11/03 A3022 RMK A01
Loading
Personal Weather Stations






























Interactive Weather Map New forecast layout! Learn more

10-Day Weather Forecast

Advertisements
Track Severe Weather on mobile